sensor_id;sensor_type;location;lat;lon;timestamp;P1;durP1;ratioP1;P2;durP2;ratioP2
16878;SDS011;8556;52.218;9.884;2023-03-11T00:01:38;25.93;;;15.93;;
16878;SDS011;8556;52.218;9.884;2023-03-11T00:04:06;25.13;;;16.63;;
16878;SDS011;8556;52.218;9.884;2023-03-11T00:06:33;25.80;;;14.07;;
16878;SDS011;8556;52.218;9.884;2023-03-11T00:09:00;22.97;;;11.97;;
16878;SDS011;8556;52.218;9.884;2023-03-11T00:11:29;23.03;;;12.73;;
16878;SDS011;8556;52.218;9.884;2023-03-11T00:13:55;22.73;;;13.97;;
16878;SDS011;8556;52.218;9.884;2023-03-11T00:16:22;22.20;;;14.00;;
16878;SDS011;8556;52.218;9.884;2023-03-11T00:18:49;21.23;;;12.03;;
16878;SDS011;8556;52.218;9.884;2023-03-11T00:21:18;18.37;;;11.30;;
16878;SDS011;8556;52.218;9.884;2023-03-11T00:23:45;19.80;;;10.17;;
16878;SDS011;8556;52.218;9.884;2023-03-11T00:26:13;17.97;;;11.10;;
16878;SDS011;8556;52.218;9.884;2023-03-11T00:28:40;16.13;;;9.93;;
16878;SDS011;8556;52.218;9.884;2023-03-11T00:31:06;14.93;;;8.47;;
16878;SDS011;8556;52.218;9.884;2023-03-11T00:33:33;16.83;;;9.07;;
16878;SDS011;8556;52.218;9.884;2023-03-11T00:36:00;16.30;;;8.47;;
16878;SDS011;8556;52.218;9.884;2023-03-11T00:38:29;15.93;;;8.70;;
16878;SDS011;8556;52.218;9.884;2023-03-11T00:40:55;14.63;;;8.97;;
16878;SDS011;8556;52.218;9.884;2023-03-11T00:43:25;16.50;;;9.07;;
16878;SDS011;8556;52.218;9.884;2023-03-11T00:45:52;15.47;;;9.23;;
16878;SDS011;8556;52.218;9.884;2023-03-11T00:48:19;15.67;;;8.47;;
16878;SDS011;8556;52.218;9.884;2023-03-11T00:50:46;15.60;;;7.93;;
16878;SDS011;8556;52.218;9.884;2023-03-11T00:53:12;16.23;;;8.67;;
16878;SDS011;8556;52.218;9.884;2023-03-11T00:55:40;14.43;;;7.97;;
16878;SDS011;8556;52.218;9.884;2023-03-11T00:58:08;15.83;;;8.50;;
16878;SDS011;8556;52.218;9.884;2023-03-11T01:00:36;16.00;;;8.80;;
16878;SDS011;8556;52.218;9.884;2023-03-11T01:03:03;17.00;;;9.17;;
16878;SDS011;8556;52.218;9.884;2023-03-11T01:05:31;15.63;;;8.80;;
16878;SDS011;8556;52.218;9.884;2023-03-11T01:07:59;15.10;;;7.67;;
16878;SDS011;8556;52.218;9.884;2023-03-11T01:10:27;12.67;;;7.77;;
16878;SDS011;8556;52.218;9.884;2023-03-11T01:12:55;15.20;;;7.30;;
16878;SDS011;8556;52.218;9.884;2023-03-11T01:15:23;13.77;;;7.23;;
16878;SDS011;8556;52.218;9.884;2023-03-11T01:17:52;12.53;;;6.10;;
16878;SDS011;8556;52.218;9.884;2023-03-11T01:20:19;10.80;;;7.10;;
16878;SDS011;8556;52.218;9.884;2023-03-11T01:22:46;10.83;;;5.50;;
16878;SDS011;8556;52.218;9.884;2023-03-11T01:25:14;7.93;;;4.30;;
16878;SDS011;8556;52.218;9.884;2023-03-11T01:27:42;8.07;;;4.57;;
16878;SDS011;8556;52.218;9.884;2023-03-11T01:30:12;7.43;;;4.87;;
16878;SDS011;8556;52.218;9.884;2023-03-11T01:32:40;6.30;;;4.67;;
16878;SDS011;8556;52.218;9.884;2023-03-11T01:35:08;7.63;;;4.27;;
16878;SDS011;8556;52.218;9.884;2023-03-11T01:37:36;8.03;;;4.60;;
16878;SDS011;8556;52.218;9.884;2023-03-11T01:40:03;6.23;;;4.47;;
16878;SDS011;8556;52.218;9.884;2023-03-11T01:42:31;5.33;;;3.83;;
16878;SDS011;8556;52.218;9.884;2023-03-11T01:44:58;7.93;;;4.93;;
16878;SDS011;8556;52.218;9.884;2023-03-11T01:47:36;6.27;;;3.80;;
16878;SDS011;8556;52.218;9.884;2023-03-11T01:50:06;9.03;;;4.43;;
16878;SDS011;8556;52.218;9.884;2023-03-11T01:52:37;7.00;;;4.83;;
16878;SDS011;8556;52.218;9.884;2023-03-11T01:55:06;7.17;;;4.67;;
16878;SDS011;8556;52.218;9.884;2023-03-11T01:57:34;8.03;;;3.90;;
16878;SDS011;8556;52.218;9.884;2023-03-11T02:00:04;10.13;;;4.73;;
16878;SDS011;8556;52.218;9.884;2023-03-11T02:02:36;8.67;;;5.23;;
16878;SDS011;8556;52.218;9.884;2023-03-11T02:05:07;8.07;;;5.47;;
16878;SDS011;8556;52.218;9.884;2023-03-11T02:07:36;8.50;;;5.27;;
16878;SDS011;8556;52.218;9.884;2023-03-11T02:10:04;11.53;;;5.80;;
16878;SDS011;8556;52.218;9.884;2023-03-11T02:12:33;12.10;;;4.90;;
16878;SDS011;8556;52.218;9.884;2023-03-11T02:15:01;7.93;;;4.90;;
16878;SDS011;8556;52.218;9.884;2023-03-11T02:17:29;7.97;;;4.40;;
16878;SDS011;8556;52.218;9.884;2023-03-11T02:20:01;8.87;;;5.10;;
16878;SDS011;8556;52.218;9.884;2023-03-11T02:22:34;7.70;;;4.50;;
16878;SDS011;8556;52.218;9.884;2023-03-11T02:25:02;10.37;;;4.97;;
16878;SDS011;8556;52.218;9.884;2023-03-11T02:27:35;9.67;;;5.40;;
16878;SDS011;8556;52.218;9.884;2023-03-11T02:30:06;9.67;;;5.47;;
16878;SDS011;8556;52.218;9.884;2023-03-11T02:32:35;7.53;;;4.90;;
16878;SDS011;8556;52.218;9.884;2023-03-11T02:35:02;7.80;;;4.43;;
16878;SDS011;8556;52.218;9.884;2023-03-11T02:37:30;8.80;;;4.40;;
16878;SDS011;8556;52.218;9.884;2023-03-11T02:40:09;6.70;;;4.03;;
16878;SDS011;8556;52.218;9.884;2023-03-11T02:43:04;10.27;;;5.93;;
16878;SDS011;8556;52.218;9.884;2023-03-11T02:45:33;9.73;;;5.23;;
16878;SDS011;8556;52.218;9.884;2023-03-11T02:48:01;9.13;;;5.00;;
16878;SDS011;8556;52.218;9.884;2023-03-11T02:50:28;8.30;;;4.23;;
16878;SDS011;8556;52.218;9.884;2023-03-11T02:52:58;6.93;;;3.57;;
16878;SDS011;8556;52.218;9.884;2023-03-11T02:55:25;8.37;;;4.80;;
16878;SDS011;8556;52.218;9.884;2023-03-11T02:57:52;8.47;;;4.50;;
16878;SDS011;8556;52.218;9.884;2023-03-11T03:00:20;7.10;;;4.90;;
16878;SDS011;8556;52.218;9.884;2023-03-11T03:02:47;6.90;;;4.67;;
16878;SDS011;8556;52.218;9.884;2023-03-11T03:05:16;8.27;;;4.80;;
16878;SDS011;8556;52.218;9.884;2023-03-11T03:07:44;7.97;;;4.73;;
16878;SDS011;8556;52.218;9.884;2023-03-11T03:10:12;8.03;;;4.40;;
16878;SDS011;8556;52.218;9.884;2023-03-11T03:12:39;7.73;;;4.63;;
16878;SDS011;8556;52.218;9.884;2023-03-11T03:15:07;8.07;;;5.30;;
16878;SDS011;8556;52.218;9.884;2023-03-11T03:17:36;7.13;;;4.63;;
16878;SDS011;8556;52.218;9.884;2023-03-11T03:20:04;8.47;;;4.83;;
16878;SDS011;8556;52.218;9.884;2023-03-11T03:22:35;7.43;;;4.60;;
16878;SDS011;8556;52.218;9.884;2023-03-11T03:25:02;8.40;;;4.50;;
16878;SDS011;8556;52.218;9.884;2023-03-11T03:27:30;9.90;;;5.07;;
16878;SDS011;8556;52.218;9.884;2023-03-11T03:29:58;8.77;;;4.50;;
16878;SDS011;8556;52.218;9.884;2023-03-11T03:32:25;10.67;;;4.43;;
16878;SDS011;8556;52.218;9.884;2023-03-11T03:34:53;8.33;;;4.20;;
16878;SDS011;8556;52.218;9.884;2023-03-11T03:37:23;7.20;;;4.80;;
16878;SDS011;8556;52.218;9.884;2023-03-11T03:39:50;10.90;;;4.27;;
16878;SDS011;8556;52.218;9.884;2023-03-11T03:42:17;10.57;;;4.47;;
16878;SDS011;8556;52.218;9.884;2023-03-11T03:44:45;8.13;;;3.90;;
16878;SDS011;8556;52.218;9.884;2023-03-11T03:47:12;6.27;;;4.23;;
16878;SDS011;8556;52.218;9.884;2023-03-11T03:49:39;8.77;;;4.70;;
16878;SDS011;8556;52.218;9.884;2023-03-11T03:52:07;9.20;;;4.30;;
16878;SDS011;8556;52.218;9.884;2023-03-11T03:54:34;11.43;;;4.20;;
16878;SDS011;8556;52.218;9.884;2023-03-11T03:57:01;6.27;;;3.80;;
16878;SDS011;8556;52.218;9.884;2023-03-11T03:59:28;8.07;;;3.70;;
16878;SDS011;8556;52.218;9.884;2023-03-11T04:01:55;7.43;;;4.23;;
16878;SDS011;8556;52.218;9.884;2023-03-11T04:04:22;9.07;;;4.07;;
16878;SDS011;8556;52.218;9.884;2023-03-11T04:06:49;5.97;;;3.37;;
16878;SDS011;8556;52.218;9.884;2023-03-11T04:09:17;6.30;;;3.87;;
16878;SDS011;8556;52.218;9.884;2023-03-11T04:11:44;11.43;;;4.80;;
16878;SDS011;8556;52.218;9.884;2023-03-11T04:14:11;8.73;;;3.90;;
16878;SDS011;8556;52.218;9.884;2023-03-11T04:16:38;7.40;;;4.07;;
16878;SDS011;8556;52.218;9.884;2023-03-11T04:19:05;12.83;;;3.70;;
16878;SDS011;8556;52.218;9.884;2023-03-11T04:21:33;9.97;;;4.57;;
16878;SDS011;8556;52.218;9.884;2023-03-11T04:24:00;10.57;;;3.27;;
16878;SDS011;8556;52.218;9.884;2023-03-11T04:26:28;8.33;;;3.20;;
16878;SDS011;8556;52.218;9.884;2023-03-11T04:28:55;10.70;;;3.57;;
16878;SDS011;8556;52.218;9.884;2023-03-11T04:31:22;7.80;;;3.53;;
16878;SDS011;8556;52.218;9.884;2023-03-11T04:33:49;10.27;;;3.97;;
16878;SDS011;8556;52.218;9.884;2023-03-11T04:36:15;10.23;;;3.70;;
16878;SDS011;8556;52.218;9.884;2023-03-11T04:38:42;5.47;;;3.37;;
16878;SDS011;8556;52.218;9.884;2023-03-11T04:41:10;6.57;;;3.30;;
16878;SDS011;8556;52.218;9.884;2023-03-11T04:43:38;5.30;;;3.80;;
16878;SDS011;8556;52.218;9.884;2023-03-11T04:46:05;8.67;;;3.43;;
16878;SDS011;8556;52.218;9.884;2023-03-11T04:48:32;7.90;;;3.17;;
16878;SDS011;8556;52.218;9.884;2023-03-11T04:50:58;10.03;;;3.87;;
16878;SDS011;8556;52.218;9.884;2023-03-11T04:53:25;10.10;;;3.97;;
16878;SDS011;8556;52.218;9.884;2023-03-11T04:55:52;4.97;;;2.97;;
16878;SDS011;8556;52.218;9.884;2023-03-11T04:58:19;6.40;;;3.20;;
16878;SDS011;8556;52.218;9.884;2023-03-11T05:00:47;7.87;;;3.80;;
16878;SDS011;8556;52.218;9.884;2023-03-11T05:03:14;6.73;;;3.00;;
16878;SDS011;8556;52.218;9.884;2023-03-11T05:05:41;6.40;;;3.20;;
16878;SDS011;8556;52.218;9.884;2023-03-11T05:08:08;7.27;;;3.20;;
16878;SDS011;8556;52.218;9.884;2023-03-11T05:10:34;7.23;;;3.30;;
16878;SDS011;8556;52.218;9.884;2023-03-11T05:13:01;4.80;;;2.70;;
16878;SDS011;8556;52.218;9.884;2023-03-11T05:15:28;6.67;;;3.40;;
16878;SDS011;8556;52.218;9.884;2023-03-11T05:17:57;7.63;;;3.30;;
16878;SDS011;8556;52.218;9.884;2023-03-11T05:20:24;10.43;;;2.97;;
16878;SDS011;8556;52.218;9.884;2023-03-11T05:22:51;4.53;;;2.87;;
16878;SDS011;8556;52.218;9.884;2023-03-11T05:25:17;5.17;;;2.80;;
16878;SDS011;8556;52.218;9.884;2023-03-11T05:27:44;8.13;;;2.43;;
16878;SDS011;8556;52.218;9.884;2023-03-11T05:30:11;7.03;;;2.53;;
16878;SDS011;8556;52.218;9.884;2023-03-11T05:32:39;8.90;;;2.90;;
16878;SDS011;8556;52.218;9.884;2023-03-11T05:35:07;6.90;;;2.93;;
16878;SDS011;8556;52.218;9.884;2023-03-11T05:37:35;6.57;;;2.70;;
16878;SDS011;8556;52.218;9.884;2023-03-11T05:40:03;7.60;;;2.70;;
16878;SDS011;8556;52.218;9.884;2023-03-11T05:42:32;10.37;;;3.40;;
16878;SDS011;8556;52.218;9.884;2023-03-11T05:44:59;6.83;;;2.63;;
16878;SDS011;8556;52.218;9.884;2023-03-11T05:47:26;6.70;;;2.33;;
16878;SDS011;8556;52.218;9.884;2023-03-11T05:49:53;7.53;;;2.80;;
16878;SDS011;8556;52.218;9.884;2023-03-11T05:52:21;8.53;;;3.20;;
16878;SDS011;8556;52.218;9.884;2023-03-11T05:54:48;4.90;;;2.60;;
16878;SDS011;8556;52.218;9.884;2023-03-11T05:57:15;6.60;;;2.60;;
16878;SDS011;8556;52.218;9.884;2023-03-11T05:59:42;4.77;;;2.40;;
16878;SDS011;8556;52.218;9.884;2023-03-11T06:02:09;6.47;;;2.73;;
16878;SDS011;8556;52.218;9.884;2023-03-11T06:04:36;4.13;;;2.27;;
16878;SDS011;8556;52.218;9.884;2023-03-11T06:07:03;8.33;;;2.70;;
16878;SDS011;8556;52.218;9.884;2023-03-11T06:09:31;5.63;;;2.57;;
16878;SDS011;8556;52.218;9.884;2023-03-11T06:12:00;8.93;;;2.87;;
16878;SDS011;8556;52.218;9.884;2023-03-11T06:14:28;6.93;;;2.60;;
16878;SDS011;8556;52.218;9.884;2023-03-11T06:16:55;4.50;;;1.93;;
16878;SDS011;8556;52.218;9.884;2023-03-11T06:19:23;4.97;;;1.73;;
16878;SDS011;8556;52.218;9.884;2023-03-11T06:21:50;4.60;;;2.43;;
16878;SDS011;8556;52.218;9.884;2023-03-11T06:24:22;4.10;;;1.90;;
16878;SDS011;8556;52.218;9.884;2023-03-11T06:26:51;8.73;;;3.60;;
16878;SDS011;8556;52.218;9.884;2023-03-11T06:29:19;7.10;;;3.03;;
16878;SDS011;8556;52.218;9.884;2023-03-11T06:31:48;6.27;;;2.40;;
16878;SDS011;8556;52.218;9.884;2023-03-11T06:34:15;6.40;;;2.27;;
16878;SDS011;8556;52.218;9.884;2023-03-11T06:36:42;6.40;;;2.00;;
16878;SDS011;8556;52.218;9.884;2023-03-11T06:39:10;6.43;;;1.90;;
16878;SDS011;8556;52.218;9.884;2023-03-11T06:41:38;3.70;;;1.87;;
16878;SDS011;8556;52.218;9.884;2023-03-11T06:44:07;5.47;;;2.73;;
16878;SDS011;8556;52.218;9.884;2023-03-11T06:46:34;5.53;;;1.70;;
16878;SDS011;8556;52.218;9.884;2023-03-11T06:49:01;4.50;;;1.87;;
16878;SDS011;8556;52.218;9.884;2023-03-11T06:51:29;6.53;;;1.87;;
16878;SDS011;8556;52.218;9.884;2023-03-11T06:53:56;4.57;;;1.67;;
16878;SDS011;8556;52.218;9.884;2023-03-11T06:56:23;4.13;;;1.37;;
16878;SDS011;8556;52.218;9.884;2023-03-11T06:58:50;4.20;;;1.60;;
16878;SDS011;8556;52.218;9.884;2023-03-11T07:01:20;7.60;;;2.03;;
16878;SDS011;8556;52.218;9.884;2023-03-11T07:03:47;3.67;;;1.67;;
16878;SDS011;8556;52.218;9.884;2023-03-11T07:06:16;4.47;;;1.80;;
16878;SDS011;8556;52.218;9.884;2023-03-11T07:08:44;5.80;;;2.00;;
16878;SDS011;8556;52.218;9.884;2023-03-11T07:11:13;3.17;;;1.50;;
16878;SDS011;8556;52.218;9.884;2023-03-11T07:13:41;3.10;;;1.37;;
16878;SDS011;8556;52.218;9.884;2023-03-11T07:16:09;9.40;;;2.60;;
16878;SDS011;8556;52.218;9.884;2023-03-11T07:18:40;3.10;;;1.73;;
16878;SDS011;8556;52.218;9.884;2023-03-11T07:21:08;6.67;;;2.00;;
16878;SDS011;8556;52.218;9.884;2023-03-11T07:23:36;3.67;;;1.40;;
16878;SDS011;8556;52.218;9.884;2023-03-11T07:26:03;6.33;;;1.90;;
16878;SDS011;8556;52.218;9.884;2023-03-11T07:28:32;6.27;;;1.93;;
16878;SDS011;8556;52.218;9.884;2023-03-11T07:30:59;5.07;;;1.80;;
16878;SDS011;8556;52.218;9.884;2023-03-11T07:33:31;5.03;;;1.83;;
16878;SDS011;8556;52.218;9.884;2023-03-11T07:36:03;3.80;;;1.80;;
16878;SDS011;8556;52.218;9.884;2023-03-11T07:38:30;4.03;;;1.63;;
16878;SDS011;8556;52.218;9.884;2023-03-11T07:40:57;6.73;;;1.87;;
16878;SDS011;8556;52.218;9.884;2023-03-11T07:43:25;6.60;;;1.50;;
16878;SDS011;8556;52.218;9.884;2023-03-11T07:45:52;4.03;;;1.50;;
16878;SDS011;8556;52.218;9.884;2023-03-11T07:48:26;6.17;;;1.83;;
16878;SDS011;8556;52.218;9.884;2023-03-11T07:50:59;5.53;;;1.83;;
16878;SDS011;8556;52.218;9.884;2023-03-11T07:53:27;5.57;;;2.37;;
16878;SDS011;8556;52.218;9.884;2023-03-11T07:55:54;6.40;;;1.93;;
16878;SDS011;8556;52.218;9.884;2023-03-11T07:58:21;5.67;;;1.87;;
16878;SDS011;8556;52.218;9.884;2023-03-11T08:00:48;5.17;;;1.80;;
16878;SDS011;8556;52.218;9.884;2023-03-11T08:03:15;6.20;;;2.53;;
16878;SDS011;8556;52.218;9.884;2023-03-11T08:05:42;7.37;;;2.80;;
16878;SDS011;8556;52.218;9.884;2023-03-11T08:08:10;5.33;;;2.53;;
16878;SDS011;8556;52.218;9.884;2023-03-11T08:10:37;5.20;;;2.67;;
16878;SDS011;8556;52.218;9.884;2023-03-11T08:13:04;4.17;;;2.40;;
16878;SDS011;8556;52.218;9.884;2023-03-11T08:15:32;6.90;;;2.00;;
16878;SDS011;8556;52.218;9.884;2023-03-11T08:17:59;5.67;;;2.03;;
16878;SDS011;8556;52.218;9.884;2023-03-11T08:20:26;7.63;;;2.90;;
16878;SDS011;8556;52.218;9.884;2023-03-11T08:22:53;5.87;;;2.30;;
16878;SDS011;8556;52.218;9.884;2023-03-11T08:25:21;5.40;;;2.27;;
16878;SDS011;8556;52.218;9.884;2023-03-11T08:27:48;6.87;;;3.10;;
16878;SDS011;8556;52.218;9.884;2023-03-11T08:30:15;5.27;;;2.80;;
16878;SDS011;8556;52.218;9.884;2023-03-11T08:32:42;5.90;;;2.10;;
16878;SDS011;8556;52.218;9.884;2023-03-11T08:35:09;5.20;;;2.27;;
16878;SDS011;8556;52.218;9.884;2023-03-11T08:37:36;5.77;;;2.07;;
16878;SDS011;8556;52.218;9.884;2023-03-11T08:40:03;4.53;;;2.30;;
16878;SDS011;8556;52.218;9.884;2023-03-11T08:42:33;4.67;;;1.87;;
16878;SDS011;8556;52.218;9.884;2023-03-11T08:44:59;6.10;;;2.00;;
16878;SDS011;8556;52.218;9.884;2023-03-11T08:47:26;5.63;;;2.50;;
16878;SDS011;8556;52.218;9.884;2023-03-11T08:49:53;8.20;;;2.63;;
16878;SDS011;8556;52.218;9.884;2023-03-11T08:52:20;8.70;;;2.53;;
16878;SDS011;8556;52.218;9.884;2023-03-11T08:54:47;6.27;;;2.33;;
16878;SDS011;8556;52.218;9.884;2023-03-11T08:57:14;6.83;;;2.30;;
16878;SDS011;8556;52.218;9.884;2023-03-11T08:59:42;4.53;;;2.60;;
16878;SDS011;8556;52.218;9.884;2023-03-11T09:02:09;3.13;;;2.00;;
16878;SDS011;8556;52.218;9.884;2023-03-11T09:04:37;4.90;;;2.10;;
16878;SDS011;8556;52.218;9.884;2023-03-11T09:07:03;5.57;;;2.20;;
16878;SDS011;8556;52.218;9.884;2023-03-11T09:09:30;6.40;;;2.00;;
16878;SDS011;8556;52.218;9.884;2023-03-11T09:11:57;6.27;;;2.00;;
16878;SDS011;8556;52.218;9.884;2023-03-11T09:14:24;2.70;;;1.93;;
16878;SDS011;8556;52.218;9.884;2023-03-11T09:16:52;4.00;;;1.80;;
16878;SDS011;8556;52.218;9.884;2023-03-11T09:19:19;4.17;;;1.53;;
16878;SDS011;8556;52.218;9.884;2023-03-11T09:21:46;5.63;;;1.83;;
16878;SDS011;8556;52.218;9.884;2023-03-11T09:24:12;3.87;;;2.10;;
16878;SDS011;8556;52.218;9.884;2023-03-11T09:26:39;23.03;;;8.30;;
16878;SDS011;8556;52.218;9.884;2023-03-11T09:29:06;3.47;;;2.37;;
16878;SDS011;8556;52.218;9.884;2023-03-11T09:31:33;6.53;;;2.23;;
16878;SDS011;8556;52.218;9.884;2023-03-11T09:34:01;6.40;;;2.13;;
16878;SDS011;8556;52.218;9.884;2023-03-11T09:36:28;6.13;;;1.80;;
16878;SDS011;8556;52.218;9.884;2023-03-11T09:38:55;3.37;;;1.70;;
16878;SDS011;8556;52.218;9.884;2023-03-11T09:41:25;3.80;;;2.03;;
16878;SDS011;8556;52.218;9.884;2023-03-11T09:44:10;4.67;;;1.63;;
16878;SDS011;8556;52.218;9.884;2023-03-11T09:49:44;6.77;;;2.37;;
16878;SDS011;8556;52.218;9.884;2023-03-11T09:52:31;3.30;;;1.80;;
16878;SDS011;8556;52.218;9.884;2023-03-11T09:55:02;5.37;;;2.00;;
16878;SDS011;8556;52.218;9.884;2023-03-11T09:57:31;5.97;;;2.20;;
16878;SDS011;8556;52.218;9.884;2023-03-11T10:00:03;4.63;;;2.20;;
16878;SDS011;8556;52.218;9.884;2023-03-11T10:02:31;6.00;;;2.10;;
16878;SDS011;8556;52.218;9.884;2023-03-11T10:05:05;6.10;;;1.93;;
16878;SDS011;8556;52.218;9.884;2023-03-11T10:07:39;7.23;;;2.20;;
16878;SDS011;8556;52.218;9.884;2023-03-11T10:10:09;8.63;;;2.90;;
16878;SDS011;8556;52.218;9.884;2023-03-11T10:12:41;12.83;;;3.43;;
16878;SDS011;8556;52.218;9.884;2023-03-11T10:15:22;3.60;;;2.20;;
16878;SDS011;8556;52.218;9.884;2023-03-11T10:18:10;6.13;;;2.20;;
16878;SDS011;8556;52.218;9.884;2023-03-11T10:20:53;6.10;;;2.13;;
16878;SDS011;8556;52.218;9.884;2023-03-11T10:23:26;4.43;;;1.70;;
16878;SDS011;8556;52.218;9.884;2023-03-11T10:26:05;6.47;;;1.70;;
16878;SDS011;8556;52.218;9.884;2023-03-11T10:28:38;3.37;;;1.93;;
16878;SDS011;8556;52.218;9.884;2023-03-11T10:31:13;8.27;;;2.37;;
16878;SDS011;8556;52.218;9.884;2023-03-11T10:33:46;9.03;;;2.30;;
16878;SDS011;8556;52.218;9.884;2023-03-11T10:36:20;6.40;;;2.03;;
16878;SDS011;8556;52.218;9.884;2023-03-11T10:38:51;7.20;;;2.27;;
16878;SDS011;8556;52.218;9.884;2023-03-11T10:41:20;3.43;;;2.00;;
16878;SDS011;8556;52.218;9.884;2023-03-11T10:43:56;5.90;;;1.97;;
16878;SDS011;8556;52.218;9.884;2023-03-11T10:46:27;6.20;;;2.40;;
16878;SDS011;8556;52.218;9.884;2023-03-11T10:48:54;4.63;;;2.10;;
16878;SDS011;8556;52.218;9.884;2023-03-11T10:51:23;5.10;;;2.20;;
16878;SDS011;8556;52.218;9.884;2023-03-11T10:53:53;4.37;;;1.63;;
16878;SDS011;8556;52.218;9.884;2023-03-11T10:56:26;3.10;;;1.70;;
16878;SDS011;8556;52.218;9.884;2023-03-11T10:58:55;3.83;;;1.50;;
16878;SDS011;8556;52.218;9.884;2023-03-11T11:01:23;4.10;;;1.70;;
16878;SDS011;8556;52.218;9.884;2023-03-11T11:03:50;3.40;;;1.93;;
16878;SDS011;8556;52.218;9.884;2023-03-11T11:06:21;4.97;;;1.90;;
16878;SDS011;8556;52.218;9.884;2023-03-11T11:09:05;5.50;;;1.77;;
16878;SDS011;8556;52.218;9.884;2023-03-11T11:11:39;4.20;;;1.90;;
16878;SDS011;8556;52.218;9.884;2023-03-11T11:14:06;5.13;;;2.10;;
16878;SDS011;8556;52.218;9.884;2023-03-11T11:16:34;5.90;;;2.13;;
16878;SDS011;8556;52.218;9.884;2023-03-11T11:19:01;5.50;;;2.20;;
16878;SDS011;8556;52.218;9.884;2023-03-11T11:21:34;5.67;;;2.13;;
16878;SDS011;8556;52.218;9.884;2023-03-11T11:24:07;7.03;;;2.20;;
16878;SDS011;8556;52.218;9.884;2023-03-11T11:26:39;3.30;;;1.70;;
16878;SDS011;8556;52.218;9.884;2023-03-11T11:29:10;3.20;;;2.03;;
16878;SDS011;8556;52.218;9.884;2023-03-11T11:31:40;4.97;;;2.33;;
16878;SDS011;8556;52.218;9.884;2023-03-11T11:34:22;5.33;;;2.07;;
16878;SDS011;8556;52.218;9.884;2023-03-11T11:36:54;4.43;;;2.30;;
16878;SDS011;8556;52.218;9.884;2023-03-11T11:39:23;6.37;;;2.70;;
16878;SDS011;8556;52.218;9.884;2023-03-11T11:41:52;4.87;;;2.20;;
16878;SDS011;8556;52.218;9.884;2023-03-11T11:44:21;3.20;;;1.67;;
16878;SDS011;8556;52.218;9.884;2023-03-11T11:46:58;3.37;;;1.80;;
16878;SDS011;8556;52.218;9.884;2023-03-11T11:49:34;3.37;;;2.07;;
16878;SDS011;8556;52.218;9.884;2023-03-11T11:52:04;5.27;;;2.00;;
16878;SDS011;8556;52.218;9.884;2023-03-11T11:54:34;3.90;;;2.20;;
16878;SDS011;8556;52.218;9.884;2023-03-11T11:57:09;2.80;;;1.60;;
16878;SDS011;8556;52.218;9.884;2023-03-11T11:59:37;2.47;;;1.70;;
16878;SDS011;8556;52.218;9.884;2023-03-11T12:02:06;3.00;;;1.90;;
16878;SDS011;8556;52.218;9.884;2023-03-11T12:05:00;4.50;;;1.73;;
16878;SDS011;8556;52.218;9.884;2023-03-11T12:07:39;5.67;;;1.87;;
16878;SDS011;8556;52.218;9.884;2023-03-11T12:10:20;5.03;;;1.50;;
16878;SDS011;8556;52.218;9.884;2023-03-11T12:13:05;5.17;;;2.07;;
16878;SDS011;8556;52.218;9.884;2023-03-11T12:15:50;6.40;;;1.83;;
16878;SDS011;8556;52.218;9.884;2023-03-11T12:18:21;6.77;;;1.90;;
16878;SDS011;8556;52.218;9.884;2023-03-11T12:20:53;5.07;;;1.60;;
16878;SDS011;8556;52.218;9.884;2023-03-11T12:23:25;3.97;;;1.83;;
16878;SDS011;8556;52.218;9.884;2023-03-11T12:26:03;4.37;;;1.53;;
16878;SDS011;8556;52.218;9.884;2023-03-11T12:28:40;4.80;;;1.70;;
16878;SDS011;8556;52.218;9.884;2023-03-11T12:31:11;5.43;;;1.40;;
16878;SDS011;8556;52.218;9.884;2023-03-11T12:33:39;4.63;;;1.57;;
16878;SDS011;8556;52.218;9.884;2023-03-11T12:36:17;4.53;;;1.80;;
16878;SDS011;8556;52.218;9.884;2023-03-11T12:38:49;4.47;;;1.30;;
16878;SDS011;8556;52.218;9.884;2023-03-11T12:41:30;4.70;;;1.50;;
16878;SDS011;8556;52.218;9.884;2023-03-11T12:49:49;4.20;;;1.40;;
16878;SDS011;8556;52.218;9.884;2023-03-11T12:52:20;4.73;;;2.57;;
16878;SDS011;8556;52.218;9.884;2023-03-11T12:55:22;3.37;;;2.10;;
16878;SDS011;8556;52.218;9.884;2023-03-11T12:57:56;2.70;;;1.33;;
16878;SDS011;8556;52.218;9.884;2023-03-11T13:00:26;3.93;;;1.23;;
16878;SDS011;8556;52.218;9.884;2023-03-11T13:09:02;3.43;;;1.83;;
16878;SDS011;8556;52.218;9.884;2023-03-11T13:11:37;9.00;;;2.73;;
16878;SDS011;8556;52.218;9.884;2023-03-11T13:14:09;5.47;;;2.27;;
16878;SDS011;8556;52.218;9.884;2023-03-11T13:16:48;6.67;;;1.77;;
16878;SDS011;8556;52.218;9.884;2023-03-11T13:25:32;4.67;;;1.27;;
16878;SDS011;8556;52.218;9.884;2023-03-11T13:28:10;4.10;;;1.30;;
16878;SDS011;8556;52.218;9.884;2023-03-11T13:31:12;3.90;;;1.57;;
16878;SDS011;8556;52.218;9.884;2023-03-11T13:33:48;2.23;;;1.10;;
16878;SDS011;8556;52.218;9.884;2023-03-11T13:36:23;5.00;;;2.07;;
16878;SDS011;8556;52.218;9.884;2023-03-11T13:39:19;3.47;;;1.80;;
16878;SDS011;8556;52.218;9.884;2023-03-11T13:41:53;8.50;;;2.50;;
16878;SDS011;8556;52.218;9.884;2023-03-11T13:44:25;4.47;;;2.30;;
16878;SDS011;8556;52.218;9.884;2023-03-11T13:46:56;5.27;;;2.60;;
16878;SDS011;8556;52.218;9.884;2023-03-11T13:49:29;4.47;;;1.63;;
16878;SDS011;8556;52.218;9.884;2023-03-11T13:52:00;5.60;;;1.13;;
16878;SDS011;8556;52.218;9.884;2023-03-11T13:54:30;7.03;;;1.77;;
16878;SDS011;8556;52.218;9.884;2023-03-11T13:57:01;4.17;;;1.30;;
16878;SDS011;8556;52.218;9.884;2023-03-11T13:59:30;6.47;;;1.57;;
16878;SDS011;8556;52.218;9.884;2023-03-11T14:01:59;5.40;;;1.80;;
16878;SDS011;8556;52.218;9.884;2023-03-11T14:04:30;8.87;;;1.80;;
16878;SDS011;8556;52.218;9.884;2023-03-11T14:06:58;6.43;;;1.20;;
16878;SDS011;8556;52.218;9.884;2023-03-11T14:09:36;5.93;;;1.20;;
16878;SDS011;8556;52.218;9.884;2023-03-11T14:12:03;5.43;;;1.53;;
16878;SDS011;8556;52.218;9.884;2023-03-11T14:14:36;6.23;;;1.23;;
16878;SDS011;8556;52.218;9.884;2023-03-11T14:17:12;4.23;;;1.77;;
16878;SDS011;8556;52.218;9.884;2023-03-11T14:19:40;6.97;;;2.30;;
16878;SDS011;8556;52.218;9.884;2023-03-11T14:22:07;5.23;;;2.33;;
16878;SDS011;8556;52.218;9.884;2023-03-11T14:24:34;4.43;;;0.70;;
16878;SDS011;8556;52.218;9.884;2023-03-11T14:27:05;2.93;;;1.00;;
16878;SDS011;8556;52.218;9.884;2023-03-11T14:29:35;6.57;;;1.53;;
16878;SDS011;8556;52.218;9.884;2023-03-11T14:32:16;6.83;;;0.90;;
16878;SDS011;8556;52.218;9.884;2023-03-11T14:34:51;2.60;;;1.03;;
16878;SDS011;8556;52.218;9.884;2023-03-11T14:37:23;3.80;;;0.83;;
16878;SDS011;8556;52.218;9.884;2023-03-11T14:39:52;3.37;;;2.07;;
16878;SDS011;8556;52.218;9.884;2023-03-11T14:42:21;5.50;;;2.73;;
16878;SDS011;8556;52.218;9.884;2023-03-11T14:44:53;4.30;;;1.43;;
16878;SDS011;8556;52.218;9.884;2023-03-11T14:47:28;9.53;;;2.33;;
16878;SDS011;8556;52.218;9.884;2023-03-11T14:50:00;10.27;;;3.80;;
16878;SDS011;8556;52.218;9.884;2023-03-11T14:52:30;12.53;;;4.60;;
16878;SDS011;8556;52.218;9.884;2023-03-11T14:55:03;4.80;;;2.07;;
16878;SDS011;8556;52.218;9.884;2023-03-11T14:57:34;6.13;;;2.60;;
16878;SDS011;8556;52.218;9.884;2023-03-11T15:00:05;8.00;;;2.70;;
16878;SDS011;8556;52.218;9.884;2023-03-11T15:02:41;8.33;;;2.63;;
16878;SDS011;8556;52.218;9.884;2023-03-11T15:05:17;5.80;;;2.13;;
16878;SDS011;8556;52.218;9.884;2023-03-11T15:07:48;4.97;;;2.03;;
16878;SDS011;8556;52.218;9.884;2023-03-11T15:10:21;7.27;;;1.93;;
16878;SDS011;8556;52.218;9.884;2023-03-11T15:12:48;5.00;;;1.70;;
16878;SDS011;8556;52.218;9.884;2023-03-11T15:15:24;2.93;;;1.57;;
16878;SDS011;8556;52.218;9.884;2023-03-11T15:17:53;5.00;;;1.70;;
16878;SDS011;8556;52.218;9.884;2023-03-11T15:20:25;3.57;;;1.53;;
16878;SDS011;8556;52.218;9.884;2023-03-11T15:22:55;3.00;;;1.30;;
16878;SDS011;8556;52.218;9.884;2023-03-11T15:25:25;3.47;;;0.80;;
16878;SDS011;8556;52.218;9.884;2023-03-11T15:27:53;4.03;;;0.77;;
16878;SDS011;8556;52.218;9.884;2023-03-11T15:30:20;3.23;;;1.13;;
16878;SDS011;8556;52.218;9.884;2023-03-11T15:32:50;5.47;;;1.10;;
16878;SDS011;8556;52.218;9.884;2023-03-11T15:35:19;3.07;;;1.30;;